Time;durP1;ratioP1;P1;durP2;ratioP2;P2;SDS_P1;SDS_P2;PMS_P1;PMS_P2;Temp;Humidity;BMP_temperature;BMP_pressure;BME280_temperature;BME280_humidity;BME280_pressure;Samples;Min_cycle;Max_cycle;Signal;HPM_P1;HPM_P2
2021/10/01 00:04:16;;;;;;;84.50;45.90;;;;;;;6.77;79.98;99880.86;236513;1184;24069;-72
2021/10/01 00:09:18;;;;;;;88.10;46.20;;;;;;;6.78;80.08;99884.08;236308;1190;24087;-73
2021/10/01 00:14:24;;;;;;;82.60;43.60;;;;;;;6.79;80.02;99880.41;236471;1197;22480;-74
2021/10/01 00:19:28;;;;;;;73.60;40.70;;;;;;;6.77;79.96;99881.67;236759;1198;25421;-72
2021/10/01 00:24:32;;;;;;;77.30;41.90;;;;;;;6.73;80.04;99882.21;236772;1198;24047;-73
2021/10/01 00:29:36;;;;;;;70.80;39.20;;;;;;;6.67;79.69;99875.08;236549;1197;24040;-74
2021/10/01 00:34:41;;;;;;;76.40;40.50;;;;;;;6.65;79.80;99875.15;236642;1197;26271;-73
2021/10/01 00:39:43;;;;;;;71.20;40.30;;;;;;;6.59;79.70;99876.94;236522;1197;24162;-74
2021/10/01 00:44:47;;;;;;;75.90;40.40;;;;;;;6.54;79.96;99875.60;236264;1197;22443;-74
2021/10/01 00:49:50;;;;;;;73.20;39.10;;;;;;;6.54;80.24;99868.73;236080;1197;22902;-72
2021/10/01 00:54:52;;;;;;;67.00;36.90;;;;;;;6.56;80.13;99871.16;236302;1194;22496;-72
2021/10/01 00:59:55;;;;;;;67.20;36.70;;;;;;;6.55;80.12;99865.29;236499;1198;22493;-73
2021/10/01 01:04:58;;;;;;;62.70;34.10;;;;;;;6.49;80.13;99862.18;236288;1197;22431;-72
2021/10/01 01:10:17;;;;;;;65.20;33.80;;;;;;;6.47;80.41;99860.81;236200;1197;24664;-71
2021/10/01 01:15:27;;;;;;;56.50;33.00;;;;;;;6.45;80.25;99861.83;236159;1197;25186;-72
2021/10/01 01:20:45;;;;;;;68.30;37.00;;;;;;;6.44;80.34;99864.69;236370;1190;22480;-73
2021/10/01 01:26:12;;;;;;;79.20;41.80;;;;;;;6.43;80.38;99856.09;236126;1197;22940;-71
2021/10/01 01:31:46;;;;;;;73.30;39.70;;;;;;;6.38;80.20;99850.41;236758;1197;24534;-74
2021/10/01 01:36:55;;;;;;;58.90;32.90;;;;;;;6.30;80.28;99847.15;236663;1190;22421;-72
2021/10/01 01:41:59;;;;;;;55.90;30.10;;;;;;;6.21;80.19;99838.86;236810;1197;22423;-74
2021/10/01 01:47:14;;;;;;;47.90;27.00;;;;;;;6.09;79.70;99835.14;236592;1190;22430;-72
2021/10/01 01:52:18;;;;;;;49.20;25.80;;;;;;;5.90;79.87;99829.55;236598;1197;24037;-74
2021/10/01 01:57:23;;;;;;;47.70;24.20;;;;;;;5.70;79.68;99828.73;236381;1197;22420;-75
2021/10/01 02:02:26;;;;;;;39.00;22.50;;;;;;;5.51;79.72;99824.86;236367;1190;25274;-72
2021/10/01 02:07:30;;;;;;;44.80;24.60;;;;;;;5.38;80.06;99819.60;236432;1194;22430;-72
2021/10/01 02:12:35;;;;;;;42.30;24.70;;;;;;;5.28;80.18;99821.79;236240;1194;22489;-72
2021/10/01 02:17:43;;;;;;;46.70;25.70;;;;;;;5.19;80.56;99814.05;236358;1198;24134;-75
2021/10/01 02:22:46;;;;;;;42.60;25.90;;;;;;;5.11;80.68;99820.52;236128;1198;22545;-74
2021/10/01 02:27:54;;;;;;;49.00;25.50;;;;;;;5.02;80.62;99821.14;236355;1198;24054;-75
2021/10/01 02:33:01;;;;;;;41.80;24.70;;;;;;;4.93;80.64;99830.38;236804;1193;22419;-75
2021/10/01 02:38:03;;;;;;;43.50;24.90;;;;;;;4.86;80.81;99830.18;236821;1190;22536;-74
2021/10/01 02:43:06;;;;;;;47.10;26.10;;;;;;;4.85;81.24;99827.98;236298;1197;24058;-74
2021/10/01 02:48:08;;;;;;;53.40;25.00;;;;;;;4.90;81.77;99823.70;236104;1191;24015;-74
2021/10/01 02:53:17;;;;;;;41.50;24.00;;;;;;;4.94;81.94;99820.27;236272;1197;26054;-73
2021/10/01 02:58:34;;;;;;;43.50;23.90;;;;;;;4.98;81.90;99821.51;236493;1190;22439;-75
2021/10/01 03:03:40;;;;;;;44.90;27.60;;;;;;;4.89;81.16;99818.66;236454;1197;22417;-74
2021/10/01 03:08:50;;;;;;;69.30;46.60;;;;;;;4.77;81.17;99817.84;236337;1198;22595;-74
2021/10/01 03:14:15;;;;;;;81.50;57.00;;;;;;;4.72;81.49;99816.11;236545;1190;25008;-74
2021/10/01 03:19:24;;;;;;;75.50;50.30;;;;;;;4.75;81.86;99814.81;236293;1190;25175;-73
2021/10/01 03:24:29;;;;;;;71.10;48.30;;;;;;;4.81;82.07;99817.58;236310;1198;22429;-74
2021/10/01 03:29:32;;;;;;;73.20;48.20;;;;;;;4.82;82.08;99813.28;236373;1197;25060;-72
2021/10/01 03:34:35;;;;;;;69.30;46.50;;;;;;;4.83;82.11;99808.58;236373;1197;24053;-74
2021/10/01 03:39:42;;;;;;;59.40;39.80;;;;;;;4.86;82.29;99803.87;236355;1193;25124;-74
2021/10/01 03:44:44;;;;;;;58.60;37.20;;;;;;;4.86;82.11;99802.45;236288;1193;24040;-72
2021/10/01 03:49:47;;;;;;;58.30;37.40;;;;;;;4.84;82.12;99798.67;236439;1197;24050;-73
2021/10/01 03:54:51;;;;;;;54.00;34.00;;;;;;;4.83;82.05;99799.51;236279;1197;27386;-73
2021/10/01 03:59:54;;;;;;;50.60;32.00;;;;;;;4.80;82.03;99800.03;236024;1197;24675;-72
2021/10/01 04:04:59;;;;;;;50.90;32.30;;;;;;;4.81;82.61;99805.30;236458;1197;24190;-74
2021/10/01 04:10:04;;;;;;;57.40;34.10;;;;;;;4.78;82.39;99804.27;236372;1197;25565;-74
2021/10/01 04:15:08;;;;;;;59.80;35.10;;;;;;;4.77;82.67;99805.17;236370;1193;22508;-75
2021/10/01 04:20:11;;;;;;;49.30;31.20;;;;;;;4.79;82.62;99807.52;236351;1197;22452;-72
2021/10/01 04:25:14;;;;;;;48.50;30.30;;;;;;;4.76;82.48;99803.73;236110;1193;24082;-75
2021/10/01 04:30:17;;;;;;;48.70;32.00;;;;;;;4.75;82.68;99803.93;236509;1198;22459;-73
2021/10/01 04:35:21;;;;;;;51.20;31.50;;;;;;;4.82;82.80;99806.16;236556;1198;24047;-74
2021/10/01 04:40:24;;;;;;;50.70;31.60;;;;;;;4.90;83.00;99808.96;236196;1198;22423;-74
2021/10/01 04:45:26;;;;;;;49.10;29.10;;;;;;;4.93;83.07;99807.48;236153;1198;24070;-74
2021/10/01 04:50:30;;;;;;;48.40;28.70;;;;;;;4.88;82.59;99806.99;236255;1198;24059;-72
2021/10/01 04:55:35;;;;;;;52.40;30.20;;;;;;;4.76;82.03;99806.45;236107;1198;24031;-74
2021/10/01 05:00:37;;;;;;;46.90;29.90;;;;;;;4.74;82.33;99808.68;236161;1198;22409;-72
2021/10/01 05:05:58;;;;;;;54.60;33.20;;;;;;;4.75;82.26;99814.32;235998;1198;22492;-74
2021/10/01 05:11:20;;;;;;;53.80;31.10;;;;;;;4.75;82.54;99814.64;236090;1192;22519;-72
2021/10/01 05:16:45;;;;;;;53.70;32.20;;;;;;;4.81;82.75;99817.30;236618;1198;25006;-74
2021/10/01 05:22:08;;;;;;;58.20;35.80;;;;;;;4.86;82.52;99823.80;236397;1198;22442;-74
2021/10/01 05:27:11;;;;;;;59.30;35.50;;;;;;;4.86;81.79;99827.08;236380;1197;22584;-74
2021/10/01 05:32:14;;;;;;;54.00;34.80;;;;;;;4.88;82.23;99828.91;236432;1197;25344;-73
2021/10/01 05:37:19;;;;;;;56.60;35.00;;;;;;;4.97;82.61;99831.10;236278;1197;25062;-75
2021/10/01 05:42:21;;;;;;;46.60;29.40;;;;;;;5.07;82.57;99825.04;236545;1190;24088;-73
2021/10/01 05:47:25;;;;;;;46.00;29.70;;;;;;;5.17;82.67;99821.73;237026;1191;22447;-74
2021/10/01 05:52:53;;;;;;;43.70;27.50;;;;;;;5.31;82.80;99824.97;237302;1197;26236;-72
2021/10/01 05:58:17;;;;;;;41.20;23.80;;;;;;;5.42;82.59;99822.89;236980;1190;24373;-75
2021/10/01 06:03:26;;;;;;;35.90;22.50;;;;;;;5.49;82.55;99826.67;237533;1190;22468;-74
2021/10/01 06:08:29;;;;;;;31.20;21.80;;;;;;;5.57;82.30;99821.86;237077;1196;22435;-73
2021/10/01 06:13:33;;;;;;;34.20;22.90;;;;;;;5.66;82.25;99817.83;236965;1196;22806;-74
2021/10/01 06:18:38;;;;;;;33.30;22.20;;;;;;;5.79;82.43;99815.05;237695;1190;22430;-75
2021/10/01 06:23:40;;;;;;;32.50;19.90;;;;;;;5.94;82.76;99818.11;237489;1174;22441;-73
2021/10/01 06:28:44;;;;;;;34.70;22.00;;;;;;;6.11;82.99;99818.96;237225;1190;22783;-74
2021/10/01 06:33:47;;;;;;;34.40;22.90;;;;;;;6.29;82.54;99824.09;237892;1184;22425;-72
2021/10/01 06:38:51;;;;;;;31.80;19.10;;;;;;;6.37;82.68;99829.05;237282;1174;24091;-74
2021/10/01 06:44:00;;;;;;;31.20;20.40;;;;;;;6.40;82.43;99827.35;237414;1196;22511;-74
2021/10/01 07:22:02;;;;;;;35.60;24.20;;;;;;;7.71;83.00;99818.91;236636;1192;22440;-75
2021/10/01 08:21:08;;;;;;;19.00;13.40;;;;;;;11.25;80.86;99786.41;236331;1199;24068;-72
2021/10/01 08:26:10;;;;;;;14.60;11.90;;;;;;;11.58;80.31;99778.09;235869;1200;24055;-76
2021/10/01 08:31:13;;;;;;;15.80;12.30;;;;;;;11.86;79.35;99772.94;235814;1200;24116;-73
2021/10/01 08:36:18;;;;;;;14.30;10.70;;;;;;;12.08;79.05;99768.71;236172;1194;22570;-72
2021/10/01 08:41:29;;;;;;;13.90;11.20;;;;;;;12.30;78.51;99765.52;236703;1199;25099;-73
2021/10/01 08:46:32;;;;;;;13.00;10.50;;;;;;;12.45;77.82;99763.31;236354;1199;22516;-73
2021/10/01 08:51:35;;;;;;;12.80;10.60;;;;;;;12.63;77.50;99758.33;235883;1196;22456;-73
2021/10/01 08:56:39;;;;;;;13.90;9.30;;;;;;;12.86;77.01;99754.79;236105;1199;22508;-73
2021/10/01 09:01:41;;;;;;;12.60;8.60;;;;;;;13.06;76.14;99754.98;236060;1185;24063;-73
2021/10/01 09:06:46;;;;;;;9.20;7.50;;;;;;;13.23;75.93;99749.62;236225;1199;22447;-73
2021/10/01 09:12:00;;;;;;;17.00;9.20;;;;;;;13.41;74.92;99743.52;236138;1193;23163;-71
2021/10/01 09:17:19;;;;;;;7.20;5.60;;;;;;;13.53;74.14;99741.09;236264;1199;25216;-73
2021/10/01 09:22:27;;;;;;;9.30;5.90;;;;;;;13.65;73.39;99736.02;236434;1181;22451;-73
2021/10/01 09:27:35;;;;;;;6.40;5.60;;;;;;;13.83;72.76;99733.25;235666;1200;24200;-74
2021/10/01 09:32:39;;;;;;;5.20;4.30;;;;;;;14.05;72.35;99731.39;236564;1199;22430;-74
2021/10/01 09:37:42;;;;;;;8.90;5.70;;;;;;;14.22;71.40;99730.75;235815;1199;22461;-71
2021/10/01 09:42:49;;;;;;;8.20;6.10;;;;;;;14.29;70.26;99731.90;236091;1199;24135;-72
2021/10/01 09:47:52;;;;;;;8.10;6.60;;;;;;;14.33;70.12;99729.05;236235;1193;24063;-74
2021/10/01 09:52:58;;;;;;;7.50;5.60;;;;;;;14.41;69.66;99723.65;236141;1192;25137;-72
2021/10/01 09:58:06;;;;;;;7.50;5.50;;;;;;;14.53;69.32;99723.17;236995;1193;22491;-71
2021/10/01 10:03:21;;;;;;;7.00;5.60;;;;;;;14.62;68.58;99721.92;237418;1199;22509;-74
2021/10/01 10:08:40;;;;;;;7.60;5.60;;;;;;;14.72;68.02;99718.29;236690;1199;24010;-73
2021/10/01 10:13:59;;;;;;;5.10;4.50;;;;;;;14.86;67.78;99716.52;236783;1192;22459;-73
2021/10/01 10:19:20;;;;;;;6.90;4.70;;;;;;;14.99;66.70;99709.89;236604;1199;24076;-75
2021/10/01 10:24:24;;;;;;;8.10;5.90;;;;;;;15.04;66.19;99711.52;236361;1193;22464;-72
2021/10/01 10:29:27;;;;;;;6.30;4.20;;;;;;;15.16;65.79;99704.90;236598;1199;22416;-75
2021/10/01 10:34:30;;;;;;;5.60;3.60;;;;;;;15.25;65.15;99698.02;236363;1193;24132;-74
2021/10/01 10:39:36;;;;;;;5.30;3.20;;;;;;;15.33;64.83;99695.77;236835;1192;22540;-76
2021/10/01 10:44:53;;;;;;;4.80;3.30;;;;;;;15.47;64.35;99689.37;236193;1194;23687;-74
2021/10/01 10:50:27;;;;;;;3.60;2.60;;;;;;;15.61;63.86;99683.86;236131;1193;24090;-73
2021/10/01 10:55:45;;;;;;;4.30;2.70;;;;;;;15.72;62.63;99678.73;235843;1201;22447;-75
2021/10/01 11:01:02;;;;;;;4.30;2.20;;;;;;;15.81;62.53;99668.91;236040;1193;24090;-72
2021/10/01 11:06:19;;;;;;;4.90;2.90;;;;;;;15.93;62.16;99669.05;236110;1196;24138;-72
2021/10/01 11:11:47;;;;;;;5.50;3.50;;;;;;;16.01;61.93;99662.30;236206;1196;25300;-75
2021/10/01 11:17:10;;;;;;;4.30;2.90;;;;;;;16.08;61.21;99658.30;235911;1199;22901;-74
2021/10/01 11:22:29;;;;;;;4.30;2.70;;;;;;;16.25;61.59;99657.46;236165;1192;22592;-74
2021/10/01 11:27:44;;;;;;;5.30;3.10;;;;;;;16.46;61.34;99656.59;235952;1199;22449;-74
2021/10/01 11:32:47;;;;;;;3.90;3.10;;;;;;;16.62;60.84;99643.04;235993;1199;22558;-75
2021/10/01 11:37:51;;;;;;;5.30;2.90;;;;;;;16.75;60.76;99635.31;236211;1199;27127;-75
2021/10/01 11:42:58;;;;;;;3.70;2.60;;;;;;;16.81;58.43;99625.52;236553;1197;22818;-75
2021/10/01 11:48:07;;;;;;;3.80;2.40;;;;;;;16.78;56.90;99625.60;238500;1199;24030;-73
2021/10/01 11:53:22;;;;;;;2.90;2.70;;;;;;;16.61;57.71;99620.40;236575;1195;24048;-73
2021/10/01 11:58:26;;;;;;;3.30;2.90;;;;;;;16.65;58.81;99612.88;237774;1194;22457;-73
2021/10/01 12:03:29;;;;;;;3.50;2.90;;;;;;;16.85;58.32;99607.88;237873;1199;23990;-73
2021/10/01 12:08:45;;;;;;;3.00;2.40;;;;;;;17.00;57.32;99599.52;236169;1200;25066;-71
2021/10/01 12:14:20;;;;;;;2.70;2.20;;;;;;;17.18;57.07;99596.29;236080;1193;24090;-73
2021/10/01 12:19:24;;;;;;;4.30;2.70;;;;;;;17.28;55.71;99591.35;235926;1193;22463;-72
2021/10/01 12:24:27;;;;;;;3.90;3.10;;;;;;;17.14;55.41;99583.02;236012;1199;22561;-71
2021/10/01 12:29:29;;;;;;;4.30;2.40;;;;;;;17.20;55.53;99579.01;236010;1194;22904;-72
2021/10/01 12:34:48;;;;;;;3.50;2.80;;;;;;;17.21;55.10;99571.08;236050;1194;24046;-71
2021/10/01 12:40:10;;;;;;;4.20;3.10;;;;;;;17.18;54.26;99558.84;235906;1199;24140;-73
2021/10/01 12:45:23;;;;;;;6.90;4.40;;;;;;;17.09;53.43;99549.38;236132;1199;22468;-76
2021/10/01 12:50:33;;;;;;;4.00;3.40;;;;;;;17.01;53.07;99545.26;235969;1196;24485;-73
2021/10/01 12:55:36;;;;;;;4.90;2.90;;;;;;;17.11;53.06;99538.02;236400;1193;25269;-73
2021/10/01 13:00:39;;;;;;;3.70;2.50;;;;;;;17.19;53.66;99531.30;236021;1199;26689;-73
2021/10/01 13:05:44;;;;;;;3.40;2.70;;;;;;;17.31;53.88;99524.66;236332;1193;24046;-74
2021/10/01 13:10:53;;;;;;;5.60;4.00;;;;;;;17.42;52.68;99518.73;236812;1199;24256;-77
2021/10/01 13:16:00;;;;;;;19.50;15.50;;;;;;;17.41;52.71;99517.17;236879;1184;24071;-76
2021/10/01 13:21:16;;;;;;;4.40;4.00;;;;;;;17.55;53.66;99513.84;236430;1193;25269;-74
2021/10/01 13:26:36;;;;;;;7.00;5.00;;;;;;;17.67;53.26;99508.66;236336;1199;24011;-75
2021/10/01 13:31:58;;;;;;;3.60;3.20;;;;;;;17.77;53.36;99502.00;236018;1199;23978;-76
2021/10/01 13:37:01;;;;;;;4.00;3.20;;;;;;;17.93;53.20;99500.23;235768;1200;22522;-74
2021/10/01 13:42:03;;;;;;;3.80;3.10;;;;;;;18.03;53.19;99493.99;236302;1200;22532;-74
2021/10/01 13:47:06;;;;;;;4.80;3.30;;;;;;;18.06;52.41;99492.36;236412;1200;25113;-74
2021/10/01 13:52:08;;;;;;;3.40;3.10;;;;;;;17.96;51.66;99486.06;236292;1199;22435;-73
2021/10/01 13:57:11;;;;;;;3.30;3.00;;;;;;;17.84;51.20;99479.21;236440;1199;24212;-75
2021/10/01 14:02:17;;;;;;;15.10;11.80;;;;;;;17.86;52.51;99474.05;236796;1193;23594;-74
2021/10/01 14:07:20;;;;;;;4.00;3.20;;;;;;;17.93;52.80;99471.58;237148;1199;22440;-72
2021/10/01 14:12:23;;;;;;;3.40;3.10;;;;;;;17.94;52.44;99467.15;237362;1186;24187;-74
2021/10/01 14:17:26;;;;;;;4.60;3.00;;;;;;;17.89;52.17;99459.55;236992;1200;22607;-74
2021/10/01 14:22:28;;;;;;;7.20;5.10;;;;;;;17.76;52.08;99456.33;236579;1194;24092;-75
2021/10/01 14:27:31;;;;;;;4.10;3.30;;;;;;;17.60;52.38;99451.45;236392;1200;25354;-74
2021/10/01 14:32:33;;;;;;;4.20;3.10;;;;;;;17.41;52.57;99450.67;236346;1199;22552;-72
2021/10/01 14:37:37;;;;;;;3.50;2.70;;;;;;;17.30;52.91;99439.98;236520;1199;22449;-73
2021/10/01 14:42:54;;;;;;;3.10;2.50;;;;;;;17.21;52.88;99440.10;236257;1199;22466;-74
2021/10/01 14:48:08;;;;;;;2.90;2.60;;;;;;;17.15;53.20;99432.77;236353;1199;24057;-74
2021/10/01 14:53:11;;;;;;;3.90;3.20;;;;;;;17.13;53.39;99430.98;236219;1191;22446;-73
2021/10/01 14:58:15;;;;;;;4.70;3.00;;;;;;;17.06;53.28;99424.89;236149;1199;24152;-74
2021/10/01 15:03:19;;;;;;;3.90;3.00;;;;;;;17.02;53.72;99424.36;236038;1199;22417;-74
2021/10/01 15:08:23;;;;;;;3.70;2.90;;;;;;;16.94;53.78;99420.52;236568;1199;25114;-75
2021/10/01 15:13:26;;;;;;;5.90;3.90;;;;;;;16.82;54.12;99414.77;236676;1192;22436;-74
2021/10/01 15:18:29;;;;;;;4.20;3.30;;;;;;;16.72;54.18;99411.05;236664;1199;24041;-72
2021/10/01 15:23:32;;;;;;;5.80;4.20;;;;;;;16.60;54.30;99408.85;236410;1193;25269;-72
2021/10/01 15:28:36;;;;;;;6.80;4.50;;;;;;;16.46;54.67;99405.77;236450;1192;25150;-75
2021/10/01 15:33:40;;;;;;;9.80;7.70;;;;;;;16.33;55.01;99403.75;235990;1194;25198;-74
2021/10/01 15:38:42;;;;;;;7.20;4.70;;;;;;;16.20;55.32;99400.44;236163;1193;22434;-76
2021/10/01 15:43:59;;;;;;;13.60;10.10;;;;;;;16.07;55.81;99398.17;236115;1200;23999;-74
2021/10/01 15:49:22;;;;;;;11.20;6.70;;;;;;;15.94;56.57;99394.72;235520;1193;22576;-73
2021/10/01 15:54:25;;;;;;;12.50;7.10;;;;;;;15.79;57.20;99395.52;235762;1193;22462;-72
2021/10/01 15:59:27;;;;;;;13.10;7.60;;;;;;;15.64;57.85;99392.82;235862;1200;25051;-74
2021/10/01 16:04:30;;;;;;;14.50;8.60;;;;;;;15.48;58.30;99388.17;236037;1199;22436;-73
2021/10/01 16:09:32;;;;;;;12.70;8.20;;;;;;;15.28;58.96;99391.00;236096;1187;22605;-77
2021/10/01 16:14:35;;;;;;;15.40;10.10;;;;;;;15.11;59.57;99387.23;236381;1199;23644;-72
2021/10/01 16:19:38;;;;;;;54.40;39.80;;;;;;;14.96;60.64;99387.70;236084;1199;24129;-75
2021/10/01 16:24:42;;;;;;;15.80;11.20;;;;;;;14.82;61.40;99385.35;236095;1184;22455;-74
2021/10/01 16:29:45;;;;;;;19.10;11.40;;;;;;;14.65;61.79;99387.99;235854;1196;22433;-72
2021/10/01 16:34:48;;;;;;;22.20;13.20;;;;;;;14.41;62.23;99389.56;235932;1201;24091;-74
2021/10/01 16:39:51;;;;;;;20.20;12.10;;;;;;;14.17;62.80;99390.73;235783;1200;24094;-74
2021/10/01 16:44:54;;;;;;;19.70;12.10;;;;;;;13.92;63.26;99390.77;236167;1177;24056;-74
2021/10/01 16:49:57;;;;;;;14.20;10.40;;;;;;;13.70;63.93;99389.41;236221;1198;22446;-74
2021/10/01 16:55:03;;;;;;;22.20;13.00;;;;;;;13.51;64.69;99391.64;236640;1199;22681;-72
2021/10/01 17:00:07;;;;;;;21.20;14.40;;;;;;;13.34;65.42;99395.58;236118;1200;22448;-72
2021/10/01 17:05:10;;;;;;;22.00;14.90;;;;;;;13.13;66.02;99397.56;236702;1199;23186;-74
2021/10/01 17:10:22;;;;;;;23.80;16.20;;;;;;;12.96;66.68;99395.55;236391;1193;24075;-72
2021/10/01 17:15:34;;;;;;;29.70;17.50;;;;;;;12.78;67.10;99395.61;236367;1198;23978;-74
2021/10/01 17:20:36;;;;;;;30.20;17.00;;;;;;;12.59;67.70;99386.81;236252;1198;22424;-74
2021/10/01 17:25:39;;;;;;;30.90;19.10;;;;;;;12.45;68.36;99381.30;236461;1187;25150;-73
2021/10/01 17:30:42;;;;;;;28.50;17.30;;;;;;;12.34;68.95;99378.56;235797;1200;23976;-74
2021/10/01 17:35:45;;;;;;;29.00;17.50;;;;;;;12.23;69.28;99373.31;236220;1200;22384;-75
2021/10/01 17:40:47;;;;;;;32.80;18.60;;;;;;;12.14;69.84;99371.95;236055;1200;22467;-73
2021/10/01 17:45:50;;;;;;;28.10;17.90;;;;;;;12.04;70.24;99368.73;235738;1200;22486;-75
2021/10/01 17:50:53;;;;;;;21.30;14.20;;;;;;;11.95;70.82;99365.04;235689;1201;22458;-72
2021/10/01 17:55:56;;;;;;;16.60;11.40;;;;;;;11.89;71.43;99368.08;236263;1200;22594;-74
2021/10/01 18:00:59;;;;;;;15.20;9.80;;;;;;;11.84;71.88;99367.36;236506;1193;24097;-73
2021/10/01 18:06:02;;;;;;;16.80;8.90;;;;;;;11.81;72.33;99367.86;236215;1200;24826;-74
2021/10/01 18:11:05;;;;;;;12.50;9.50;;;;;;;11.73;72.31;99361.73;236140;1200;24418;-74
2021/10/01 18:16:12;;;;;;;16.80;10.40;;;;;;;11.59;72.37;99358.23;236497;1178;25190;-74
2021/10/01 18:21:15;;;;;;;15.30;9.60;;;;;;;11.45;72.99;99355.02;235977;1194;22423;-74
2021/10/01 18:26:18;;;;;;;15.10;10.10;;;;;;;11.35;73.10;99358.52;236375;1200;22436;-73
2021/10/01 18:31:20;;;;;;;17.10;11.20;;;;;;;11.26;73.62;99351.33;236012;1200;24195;-75
2021/10/01 18:36:25;;;;;;;15.80;10.50;;;;;;;11.18;74.10;99351.07;235841;1200;24025;-72
2021/10/01 18:41:30;;;;;;;12.90;9.30;;;;;;;11.11;74.32;99351.91;235836;1200;22445;-73
2021/10/01 18:46:32;;;;;;;13.90;10.00;;;;;;;11.05;74.69;99354.19;235744;1201;22434;-74
2021/10/01 18:51:36;;;;;;;15.00;9.40;;;;;;;10.99;74.91;99351.70;235802;1200;24141;-72
2021/10/01 18:56:39;;;;;;;12.40;8.80;;;;;;;10.96;75.14;99348.56;236099;1200;22560;-74
2021/10/01 19:01:41;;;;;;;13.30;9.50;;;;;;;10.90;75.46;99344.95;236098;1200;22471;-74
2021/10/01 19:06:44;;;;;;;14.90;9.40;;;;;;;10.84;75.58;99343.38;235808;1200;24966;-72
2021/10/01 19:11:48;;;;;;;15.10;9.70;;;;;;;10.81;76.05;99337.70;235576;1193;24112;-72
2021/10/01 19:16:52;;;;;;;12.40;9.40;;;;;;;10.77;75.95;99332.05;236183;1200;22398;-72
2021/10/01 19:21:57;;;;;;;13.60;9.10;;;;;;;10.73;76.41;99329.59;235779;1200;24135;-74
2021/10/01 19:27:08;;;;;;;12.20;7.80;;;;;;;10.71;76.56;99328.17;235588;1200;24058;-72
2021/10/01 19:32:27;;;;;;;17.90;12.40;;;;;;;10.69;76.93;99324.26;235831;1200;24079;-73
2021/10/01 19:37:41;;;;;;;14.80;9.60;;;;;;;10.65;77.08;99322.73;235740;1200;22438;-74
2021/10/01 19:42:44;;;;;;;16.80;10.60;;;;;;;10.61;77.03;99321.45;235533;1200;25052;-72
2021/10/01 19:47:54;;;;;;;19.00;12.40;;;;;;;10.57;77.37;99323.23;235753;1200;24216;-74
2021/10/01 19:52:57;;;;;;;16.80;10.90;;;;;;;10.55;77.63;99316.87;235670;1200;22475;-74
2021/10/01 19:58:15;;;;;;;19.20;13.20;;;;;;;10.47;77.58;99314.39;235681;1194;23730;-74
2021/10/01 20:03:34;;;;;;;19.90;14.50;;;;;;;10.38;77.68;99315.77;235675;1187;24044;-72
2021/10/01 20:08:37;;;;;;;20.50;15.00;;;;;;;10.34;77.91;99315.28;235894;1199;25160;-75
2021/10/01 20:13:40;;;;;;;22.80;16.90;;;;;;;10.32;78.01;99310.45;236086;1185;24321;-74
2021/10/01 20:51:16;;;;;;;24.70;18.50;;;;;;;9.82;79.10;99289.21;235388;1201;24132;-74
2021/10/01 20:56:21;;;;;;;32.00;21.80;;;;;;;9.79;79.16;99286.65;235501;1200;25194;-74
2021/10/01 21:39:06;;;;;;;33.50;23.00;;;;;;;9.19;80.17;99239.52;235486;1193;22638;-74
2021/10/01 21:44:27;;;;;;;33.20;22.20;;;;;;;9.14;80.24;99238.78;235306;1200;22434;-73
2021/10/01 21:49:31;;;;;;;32.40;21.90;;;;;;;9.06;80.13;99228.84;235408;1193;24220;-74
2021/10/01 21:54:33;;;;;;;33.20;21.00;;;;;;;8.98;80.15;99229.73;235689;1193;25096;-71
2021/10/01 21:59:51;;;;;;;28.10;20.80;;;;;;;8.91;80.08;99229.25;236105;1193;22478;-71
2021/10/01 22:05:33;;;;;;;29.40;20.90;;;;;;;8.83;80.12;99231.97;236486;1198;24034;-72
2021/10/01 22:20:41;;;;;;;30.80;20.70;;;;;;;8.73;80.85;99218.92;235836;1198;25160;-73
2021/10/01 22:25:44;;;;;;;33.20;23.90;;;;;;;8.76;81.13;99211.23;235754;1199;22567;-74
2021/10/01 22:30:47;;;;;;;38.20;25.00;;;;;;;8.75;81.17;99207.27;235410;1193;26355;-74
2021/10/01 22:35:49;;;;;;;33.50;24.10;;;;;;;8.73;81.20;99207.92;235609;1200;22443;-75
2021/10/01 22:40:52;;;;;;;36.50;25.00;;;;;;;8.70;81.10;99208.23;235668;1192;25259;-72
2021/10/01 22:46:11;;;;;;;34.40;23.90;;;;;;;8.68;81.03;99202.67;235516;1193;24071;-74
2021/10/01 22:51:14;;;;;;;34.90;22.20;;;;;;;8.64;80.96;99195.56;235352;1193;22459;-72
2021/10/01 22:56:17;;;;;;;32.00;22.80;;;;;;;8.57;80.78;99194.86;235911;1199;23265;-74
2021/10/01 23:01:27;;;;;;;32.50;21.50;;;;;;;8.48;80.77;99191.41;235930;1199;26184;-74
2021/10/01 23:06:30;;;;;;;35.50;22.80;;;;;;;8.41;80.86;99188.81;235765;1193;25119;-72
2021/10/01 23:11:58;;;;;;;30.80;21.60;;;;;;;8.38;81.06;99185.18;235912;1199;22622;-72
